createdAt,value
2023-05-05T00:01:11.935Z,14.60
2023-05-05T00:03:38.749Z,14.54
2023-05-05T00:06:05.759Z,14.46
2023-05-05T00:08:32.734Z,14.38
2023-05-05T00:10:59.573Z,14.34
2023-05-05T00:13:26.433Z,14.32
2023-05-05T00:15:53.700Z,14.25
2023-05-05T00:18:21.214Z,14.21
2023-05-05T00:20:48.190Z,14.18
2023-05-05T00:23:15.754Z,14.15
2023-05-05T00:25:42.630Z,14.12
2023-05-05T00:28:09.533Z,14.05
2023-05-05T00:30:36.545Z,14.02
2023-05-05T00:33:03.399Z,13.99
2023-05-05T00:35:30.371Z,13.99
2023-05-05T00:37:57.222Z,13.98
2023-05-05T00:40:25.331Z,13.96
2023-05-05T00:42:52.498Z,13.93
2023-05-05T00:45:20.070Z,13.93
2023-05-05T00:47:57.202Z,13.94
2023-05-05T00:50:24.671Z,13.94
2023-05-05T00:52:53.021Z,13.94
2023-05-05T00:55:20.061Z,13.93
2023-05-05T00:57:47.605Z,13.91
2023-05-05T01:00:14.561Z,13.91
2023-05-05T01:02:41.572Z,13.91
2023-05-05T01:05:08.969Z,13.90
2023-05-05T01:07:48.706Z,13.88
2023-05-05T01:10:31.424Z,13.78
2023-05-05T01:13:03.171Z,13.73
2023-05-05T01:15:33.703Z,13.66
2023-05-05T01:18:11.872Z,13.61
2023-05-05T01:20:46.318Z,13.56
2023-05-05T01:23:15.499Z,13.51
2023-05-05T01:25:49.851Z,13.51
2023-05-05T01:28:19.665Z,13.52
2023-05-05T01:30:50.319Z,13.52
2023-05-05T01:33:19.524Z,13.53
2023-05-05T01:35:47.663Z,13.56
2023-05-05T01:38:15.173Z,13.58
2023-05-05T01:40:46.414Z,13.56
2023-05-05T01:43:13.517Z,13.51
2023-05-05T01:45:41.021Z,13.46
2023-05-05T01:48:07.916Z,13.43
2023-05-05T01:50:34.859Z,13.41
2023-05-05T01:53:01.659Z,13.41
2023-05-05T01:55:28.861Z,13.41
2023-05-05T01:57:55.768Z,13.41
2023-05-05T02:00:25.326Z,13.42
2023-05-05T02:02:52.342Z,13.43
2023-05-05T02:05:22.048Z,13.44
2023-05-05T02:07:49.512Z,13.42
2023-05-05T02:10:16.351Z,13.34
2023-05-05T02:12:43.198Z,13.31
2023-05-05T02:15:10.352Z,13.29
2023-05-05T02:17:37.202Z,13.24
2023-05-05T02:20:04.455Z,13.21
2023-05-05T02:22:32.621Z,13.20
2023-05-05T02:25:01.203Z,13.22
2023-05-05T02:27:28.008Z,13.22
2023-05-05T02:29:58.066Z,13.22
2023-05-05T02:32:29.960Z,13.23
2023-05-05T02:34:56.744Z,13.21
2023-05-05T02:37:24.190Z,13.17
2023-05-05T02:40:03.351Z,13.12
2023-05-05T02:42:33.641Z,13.03
2023-05-05T02:45:02.052Z,12.87
2023-05-05T02:47:36.719Z,12.72
2023-05-05T02:50:05.419Z,12.65
2023-05-05T02:52:32.822Z,12.66
2023-05-05T02:54:59.871Z,12.66
2023-05-05T02:57:36.277Z,12.67
2023-05-05T03:00:07.088Z,12.75
2023-05-05T03:02:41.934Z,12.84
2023-05-05T03:05:22.773Z,12.93
2023-05-05T03:08:01.940Z,13.02
2023-05-05T03:10:31.010Z,13.10
2023-05-05T03:13:00.092Z,13.17
2023-05-05T03:15:46.772Z,13.23
2023-05-05T03:18:15.740Z,13.26
2023-05-05T03:20:45.111Z,13.28
2023-05-05T03:23:13.675Z,13.31
2023-05-05T03:25:41.568Z,13.31
2023-05-05T03:28:09.318Z,13.27
2023-05-05T03:30:36.174Z,13.25
2023-05-05T03:33:03.157Z,13.27
2023-05-05T03:35:30.473Z,13.28
2023-05-05T03:37:57.800Z,13.29
2023-05-05T03:40:36.242Z,13.31
2023-05-05T03:43:10.800Z,13.30
2023-05-05T03:45:37.995Z,13.34
2023-05-05T03:48:05.688Z,13.37
2023-05-05T03:50:32.805Z,13.39
2023-05-05T03:52:59.650Z,13.39
2023-05-05T03:55:26.695Z,13.37
2023-05-05T03:57:53.537Z,13.37
2023-05-05T04:00:20.488Z,13.43
2023-05-05T04:02:47.452Z,13.53
2023-05-05T04:05:14.853Z,13.63
2023-05-05T04:07:42.274Z,13.72
2023-05-05T04:10:09.484Z,13.79
2023-05-05T04:12:36.489Z,13.83
2023-05-05T04:15:03.546Z,13.89
2023-05-05T04:17:30.795Z,13.97
2023-05-05T04:19:57.745Z,14.09
2023-05-05T04:22:24.729Z,14.21
2023-05-05T04:24:51.974Z,14.33
2023-05-05T04:27:18.920Z,14.45
2023-05-05T04:29:45.883Z,14.52
2023-05-05T04:32:13.015Z,14.60
2023-05-05T04:34:39.965Z,14.73
2023-05-05T04:37:07.123Z,14.87
2023-05-05T04:39:34.492Z,14.99
2023-05-05T04:42:02.433Z,15.08
2023-05-05T04:44:29.587Z,15.15
2023-05-05T04:46:56.731Z,15.25
2023-05-05T04:49:23.882Z,15.37
2023-05-05T04:51:50.832Z,15.45
2023-05-05T04:54:17.792Z,15.34
2023-05-05T04:56:44.603Z,15.28
2023-05-05T04:59:11.341Z,15.23
2023-05-05T05:01:38.719Z,15.20
2023-05-05T05:04:05.663Z,15.20
2023-05-05T05:06:32.607Z,15.11
2023-05-05T05:08:59.512Z,15.00
2023-05-05T05:11:26.591Z,14.96
2023-05-05T05:14:24.198Z,14.93
2023-05-05T05:16:52.649Z,14.91
2023-05-05T05:19:20.399Z,14.87
2023-05-05T05:21:47.753Z,14.84
2023-05-05T05:24:14.795Z,14.84
2023-05-05T05:26:41.643Z,14.88
2023-05-05T05:29:08.592Z,14.94
2023-05-05T05:31:37.090Z,14.97
2023-05-05T05:34:04.425Z,15.03
2023-05-05T05:36:31.877Z,15.08
2023-05-05T05:41:58.116Z,15.35
2023-05-05T05:44:31.240Z,15.46
2023-05-05T05:46:59.165Z,15.51
2023-05-05T05:49:28.511Z,15.54
2023-05-05T05:51:57.196Z,15.57
2023-05-05T05:54:25.543Z,15.56
2023-05-05T05:56:52.724Z,15.51
2023-05-05T05:59:19.644Z,15.46
2023-05-05T06:01:48.230Z,15.43
2023-05-05T06:04:15.311Z,15.46
2023-05-05T06:06:44.674Z,15.54
2023-05-05T06:09:36.890Z,15.63
2023-05-05T06:12:03.884Z,15.75
2023-05-05T06:14:31.306Z,15.85
2023-05-05T06:16:58.601Z,15.91
2023-05-05T06:19:26.275Z,15.93
2023-05-05T06:21:53.273Z,15.88
2023-05-05T06:24:20.526Z,15.88
2023-05-05T06:26:47.369Z,15.85
2023-05-05T06:29:14.278Z,15.73
2023-05-05T06:31:41.159Z,15.64
2023-05-05T06:34:08.307Z,15.66
2023-05-05T06:36:35.245Z,15.71
2023-05-05T06:39:02.985Z,15.73
2023-05-05T06:41:29.982Z,15.81
2023-05-05T06:43:58.233Z,15.90
2023-05-05T06:46:25.391Z,15.93
2023-05-05T06:48:52.331Z,16.01
2023-05-05T06:51:19.894Z,16.09
2023-05-05T06:53:46.835Z,16.17
2023-05-05T06:56:13.662Z,16.21
2023-05-05T06:58:41.340Z,16.23
2023-05-05T07:01:08.687Z,16.25
2023-05-05T07:03:35.978Z,16.27
2023-05-05T07:06:03.655Z,16.27
2023-05-05T07:08:30.463Z,16.16
2023-05-05T07:10:57.512Z,16.13
2023-05-05T07:13:24.444Z,16.17
2023-05-05T07:15:51.528Z,16.20
2023-05-05T07:18:20.497Z,16.25
2023-05-05T07:20:47.440Z,16.32
2023-05-05T07:23:14.372Z,16.35
2023-05-05T07:25:41.231Z,16.39
2023-05-05T07:28:08.128Z,16.48
2023-05-05T07:30:35.015Z,16.55
2023-05-05T07:33:01.883Z,16.62
2023-05-05T07:35:28.973Z,16.72
2023-05-05T07:37:55.815Z,16.78
2023-05-05T07:40:22.645Z,16.74
2023-05-05T07:42:49.423Z,16.67
2023-05-05T07:45:16.359Z,16.61
2023-05-05T07:47:43.231Z,16.54
2023-05-05T07:50:10.669Z,16.53
2023-05-05T07:52:44.944Z,16.57
2023-05-05T07:55:15.121Z,16.63
2023-05-05T07:57:41.997Z,16.69
2023-05-05T08:00:09.906Z,16.77
2023-05-05T08:02:39.794Z,16.85
2023-05-05T08:05:07.752Z,16.91
2023-05-05T08:07:36.688Z,16.99
2023-05-05T08:10:03.533Z,17.06
2023-05-05T08:12:30.809Z,17.08
2023-05-05T08:14:57.638Z,17.09
2023-05-05T08:17:27.191Z,17.09
2023-05-05T08:19:54.285Z,17.04
2023-05-05T08:22:21.637Z,16.96
2023-05-05T08:24:48.481Z,16.89
2023-05-05T08:27:15.428Z,16.86
2023-05-05T08:29:42.372Z,16.88
2023-05-05T08:32:09.133Z,16.93
2023-05-05T08:34:35.997Z,16.93
2023-05-05T08:37:02.789Z,16.87
2023-05-05T08:39:29.944Z,16.78
2023-05-05T08:41:56.760Z,16.78
2023-05-05T08:44:23.545Z,16.81
2023-05-05T08:46:50.518Z,16.85
2023-05-05T08:49:17.400Z,16.90
2023-05-05T08:51:44.574Z,16.97
2023-05-05T08:54:15.131Z,17.03
2023-05-05T08:56:42.172Z,17.09
2023-05-05T08:59:10.105Z,17.13
2023-05-05T09:01:37.169Z,17.16
2023-05-05T09:04:04.198Z,17.14
2023-05-05T09:06:32.370Z,17.16
2023-05-05T09:08:59.725Z,17.23
2023-05-05T09:11:28.237Z,17.25
2023-05-05T09:13:55.668Z,17.28
2023-05-05T09:16:22.694Z,17.38
2023-05-05T09:18:49.670Z,17.50
2023-05-05T09:21:23.257Z,17.62
2023-05-05T09:24:08.598Z,17.73
2023-05-05T09:26:39.516Z,17.81
2023-05-05T09:29:06.419Z,17.89
2023-05-05T09:31:33.625Z,17.97
2023-05-05T09:34:04.449Z,18.00
2023-05-05T09:36:42.433Z,17.97
2023-05-05T09:39:09.425Z,17.92
2023-05-05T09:41:36.541Z,17.88
2023-05-05T09:44:03.355Z,17.90
2023-05-05T09:46:30.206Z,17.93
2023-05-05T09:48:57.134Z,17.91
2023-05-05T09:51:30.125Z,17.88
2023-05-05T09:53:57.066Z,17.86
2023-05-05T09:56:36.152Z,17.82
2023-05-05T09:59:09.560Z,17.75
2023-05-05T10:01:36.671Z,17.74
2023-05-05T10:04:03.481Z,17.75
2023-05-05T10:06:48.681Z,17.80
2023-05-05T10:09:15.599Z,17.84
2023-05-05T10:11:42.578Z,17.89
2023-05-05T10:14:09.320Z,17.91
2023-05-05T10:16:36.384Z,17.88
2023-05-05T10:19:04.235Z,17.90
2023-05-05T10:21:33.082Z,17.92
2023-05-05T10:24:10.901Z,17.91
2023-05-05T10:26:39.362Z,17.90
2023-05-05T10:29:07.662Z,17.93
2023-05-05T10:31:37.551Z,17.97
2023-05-05T10:34:06.226Z,18.04
2023-05-05T10:36:33.260Z,18.10
2023-05-05T10:39:00.171Z,18.15
2023-05-05T10:41:27.198Z,18.21
2023-05-05T10:44:02.868Z,18.27
2023-05-05T10:46:31.403Z,18.34
2023-05-05T10:49:13.049Z,18.38
2023-05-05T10:51:41.179Z,18.43
2023-05-05T10:54:17.281Z,18.42
2023-05-05T10:56:44.090Z,18.36
2023-05-05T10:59:29.970Z,18.35
2023-05-05T11:01:56.702Z,18.35
2023-05-05T11:04:23.813Z,18.33
2023-05-05T11:07:11.813Z,18.26
2023-05-05T11:09:57.909Z,18.20
2023-05-05T11:12:24.808Z,18.17
2023-05-05T11:15:10.932Z,18.21
2023-05-05T11:17:44.417Z,18.27
2023-05-05T11:20:11.721Z,18.29
2023-05-05T11:22:58.790Z,18.28
2023-05-05T11:25:35.079Z,18.31
2023-05-05T11:28:05.050Z,18.36
2023-05-05T11:30:31.828Z,18.38
2023-05-05T11:33:17.528Z,18.39
2023-05-05T11:36:06.114Z,18.37
2023-05-05T11:38:52.564Z,18.36
2023-05-05T11:41:26.458Z,18.36
2023-05-05T11:44:12.748Z,18.38
2023-05-05T11:46:40.605Z,18.42
2023-05-05T11:49:08.387Z,18.44
2023-05-05T11:51:35.281Z,18.46
2023-05-05T11:54:02.086Z,18.49
2023-05-05T11:56:29.119Z,18.52
2023-05-05T11:59:06.412Z,18.55
2023-05-05T12:01:33.353Z,18.57
2023-05-05T12:04:00.368Z,18.57
2023-05-05T12:06:27.754Z,18.54
2023-05-05T12:08:54.473Z,18.51
2023-05-05T12:11:21.367Z,18.50
2023-05-05T12:13:48.182Z,18.52
2023-05-05T12:16:15.556Z,18.52
2023-05-05T12:18:42.504Z,18.50
2023-05-05T12:21:16.103Z,18.51
2023-05-05T12:23:42.988Z,18.54
2023-05-05T12:26:29.320Z,18.57
2023-05-05T12:28:56.816Z,18.62
2023-05-05T12:31:23.762Z,18.64
2023-05-05T12:33:50.703Z,18.61
2023-05-05T12:36:17.533Z,18.59
2023-05-05T12:38:44.582Z,18.59
2023-05-05T12:41:11.571Z,18.58
2023-05-05T12:43:38.790Z,18.55
2023-05-05T12:46:06.752Z,18.54
2023-05-05T12:48:34.222Z,18.55
2023-05-05T12:51:17.543Z,18.57
2023-05-05T12:53:47.758Z,18.60
2023-05-05T12:56:33.988Z,18.60
2023-05-05T12:59:01.601Z,18.59
2023-05-05T13:01:29.043Z,18.59
2023-05-05T13:04:10.792Z,18.59
2023-05-05T13:06:38.420Z,18.58
2023-05-05T13:09:05.372Z,18.59
2023-05-05T13:11:36.523Z,18.59
2023-05-05T13:14:03.897Z,18.59
2023-05-05T13:16:31.210Z,18.59
2023-05-05T13:18:58.251Z,18.54
2023-05-05T13:21:25.086Z,18.48
2023-05-05T13:23:51.964Z,18.43
2023-05-05T13:26:18.771Z,18.42
2023-05-05T13:28:45.823Z,18.40
2023-05-05T13:31:12.711Z,18.36
2023-05-05T13:33:39.513Z,18.35
2023-05-05T13:36:06.503Z,18.35
2023-05-05T13:38:33.598Z,18.37
2023-05-05T13:41:00.508Z,18.38
2023-05-05T13:43:27.294Z,18.35
2023-05-05T13:45:55.069Z,18.32
2023-05-05T13:48:24.141Z,18.32
2023-05-05T13:50:51.003Z,18.32
2023-05-05T13:53:17.808Z,18.32
2023-05-05T13:55:44.673Z,18.33
2023-05-05T13:58:11.538Z,18.34
2023-05-05T14:00:38.919Z,18.35
2023-05-05T14:03:06.119Z,18.33
2023-05-05T14:05:34.193Z,18.29
2023-05-05T14:08:01.338Z,18.26
2023-05-05T14:10:31.187Z,18.22
2023-05-05T14:12:58.116Z,18.18
2023-05-05T14:15:25.029Z,18.15
2023-05-05T14:17:51.847Z,18.14
2023-05-05T14:20:18.932Z,18.14
2023-05-05T14:22:47.122Z,18.15
2023-05-05T14:25:15.857Z,18.14
2023-05-05T14:27:42.594Z,18.16
2023-05-05T14:30:09.689Z,18.16
2023-05-05T14:32:36.507Z,18.15
2023-05-05T14:35:03.678Z,18.15
2023-05-05T14:37:30.606Z,18.15
2023-05-05T14:39:58.409Z,18.14
2023-05-05T14:42:25.873Z,18.13
2023-05-05T14:44:52.888Z,18.11
2023-05-05T14:47:19.630Z,18.11
2023-05-05T14:49:46.369Z,18.11
2023-05-05T14:52:13.121Z,18.12
2023-05-05T14:54:40.060Z,18.11
2023-05-05T14:57:07.724Z,18.10
2023-05-05T14:59:34.686Z,18.07
2023-05-05T15:02:01.687Z,18.03
2023-05-05T15:04:28.550Z,18.00
2023-05-05T15:06:55.390Z,17.97
2023-05-05T15:09:22.230Z,17.93
2023-05-05T15:11:49.289Z,17.87
2023-05-05T15:14:16.039Z,17.83
2023-05-05T15:16:43.087Z,17.81
2023-05-05T15:19:09.934Z,17.81
2023-05-05T15:21:36.854Z,17.80
2023-05-05T15:24:04.962Z,17.76
2023-05-05T15:26:31.933Z,17.72
2023-05-05T15:28:58.822Z,17.67
2023-05-05T15:31:26.006Z,17.65
2023-05-05T15:33:52.812Z,17.63
2023-05-05T15:36:22.840Z,17.60
2023-05-05T15:38:50.627Z,17.55
2023-05-05T15:41:17.439Z,17.49
2023-05-05T15:43:44.210Z,17.43
